createdAt,value
2018-01-17T06:57:39.502Z,0.52
2018-01-17T06:58:42.451Z,0.60
2018-01-17T06:59:45.380Z,0.60
2018-01-17T07:00:48.452Z,0.57
2018-01-17T07:01:51.374Z,0.56
2018-01-17T07:02:54.613Z,0.53
2018-01-17T07:03:57.985Z,0.54
2018-01-17T07:05:00.901Z,0.59
2018-01-17T07:06:03.857Z,0.59
2018-01-17T07:07:06.826Z,0.61
2018-01-17T07:08:10.205Z,0.62
2018-01-17T07:09:13.499Z,0.60
2018-01-17T07:10:16.436Z,0.61
2018-01-17T07:11:19.612Z,0.66
2018-01-17T07:12:22.526Z,0.64
2018-01-17T07:13:25.584Z,0.60
2018-01-17T07:14:28.520Z,0.63
2018-01-17T07:15:31.900Z,0.68
2018-01-17T07:16:34.838Z,0.63
2018-01-17T07:17:37.756Z,0.65
2018-01-17T07:18:40.696Z,0.66
2018-01-17T07:19:43.610Z,0.61
2018-01-17T07:20:46.558Z,0.54
2018-01-17T07:21:49.795Z,0.55
2018-01-17T07:22:52.719Z,0.57
2018-01-17T07:23:55.660Z,0.53
2018-01-17T07:24:58.616Z,0.56
2018-01-17T07:26:01.549Z,0.52
2018-01-17T07:27:04.466Z,0.55
2018-01-17T07:28:07.985Z,0.53
2018-01-17T07:29:10.885Z,0.49
2018-01-17T07:30:13.879Z,0.52
2018-01-17T07:31:16.927Z,0.58
2018-01-17T07:32:19.937Z,0.56
2018-01-17T07:33:22.906Z,0.57
2018-01-17T07:34:26.242Z,0.58
2018-01-17T07:35:29.241Z,0.62
2018-01-17T07:36:32.197Z,0.63
2018-01-17T07:37:35.123Z,0.60
2018-01-17T07:38:38.224Z,0.68
2018-01-17T07:39:41.125Z,0.60
2018-01-17T07:40:44.486Z,0.67
2018-01-17T07:41:47.407Z,0.65
2018-01-17T07:42:50.395Z,0.60
2018-01-17T07:43:53.328Z,0.57
2018-01-17T07:44:56.398Z,0.58
2018-01-17T07:45:59.311Z,0.59
2018-01-17T07:47:02.735Z,0.55
2018-01-17T07:48:05.646Z,0.55
2018-01-17T07:49:08.643Z,0.60
2018-01-17T07:50:11.572Z,0.58
2018-01-17T07:51:14.460Z,0.56
2018-01-17T07:52:17.544Z,0.47
2018-01-17T07:53:20.964Z,0.49
2018-01-17T07:54:23.978Z,0.52
2018-01-17T07:55:26.883Z,0.59
2018-01-17T07:56:29.859Z,0.65
2018-01-17T07:57:32.824Z,0.65
2018-01-17T07:58:35.683Z,0.67
2018-01-17T07:59:39.028Z,0.60
2018-01-17T08:00:43.505Z,0.69
2018-01-17T08:01:46.527Z,0.62
2018-01-17T08:02:49.444Z,0.60
2018-01-17T08:03:52.414Z,0.65
2018-01-17T08:04:55.328Z,0.67
2018-01-17T08:05:58.675Z,0.72
2018-01-17T08:07:01.630Z,0.66
2018-01-17T08:08:04.561Z,0.69
2018-01-17T08:09:07.512Z,0.66
2018-01-17T08:10:10.428Z,0.69
2018-01-17T08:11:13.349Z,0.58
2018-01-17T08:12:16.786Z,0.55
2018-01-17T08:13:19.730Z,0.65
2018-01-17T08:14:22.715Z,0.60
2018-01-17T08:15:25.608Z,0.68
2018-01-17T08:16:28.541Z,0.77
2018-01-17T08:17:31.447Z,0.78
2018-01-17T08:18:34.806Z,0.84
2018-01-17T08:19:37.785Z,0.75
2018-01-17T08:20:40.689Z,0.78
2018-01-17T08:21:43.690Z,0.76
2018-01-17T08:22:46.622Z,0.70
2018-01-17T08:23:49.570Z,0.72
2018-01-17T08:24:52.928Z,0.62
2018-01-17T08:25:56.016Z,0.52
2018-01-17T08:26:58.954Z,0.53
2018-01-17T08:28:01.892Z,0.48
2018-01-17T08:29:04.826Z,0.49
2018-01-17T08:30:07.768Z,0.48
2018-01-17T08:31:11.127Z,0.58
2018-01-17T08:32:14.145Z,0.62
2018-01-17T08:33:17.067Z,0.63
2018-01-17T08:34:19.985Z,0.59
2018-01-17T08:35:22.987Z,0.62
2018-01-17T08:36:25.988Z,0.64
2018-01-17T08:37:29.414Z,0.67
2018-01-17T08:38:32.455Z,0.63
2018-01-17T08:39:35.393Z,0.57
2018-01-17T08:40:39.087Z,0.57
2018-01-17T08:41:42.200Z,0.62
2018-01-17T08:42:45.181Z,0.60
2018-01-17T08:43:48.530Z,0.60
2018-01-17T08:44:51.565Z,0.58
2018-01-17T08:45:54.456Z,0.55
2018-01-17T08:46:57.453Z,0.62
2018-01-17T08:48:00.389Z,0.65
2018-01-17T08:49:04.507Z,0.66
2018-01-17T08:50:07.889Z,0.67
2018-01-17T08:51:10.989Z,0.61
2018-01-17T08:52:13.923Z,0.61
2018-01-17T08:53:16.927Z,0.68
2018-01-17T08:54:19.833Z,0.67
2018-01-17T08:55:22.819Z,0.63
2018-01-17T08:56:26.287Z,0.63
2018-01-17T08:57:29.313Z,0.66
2018-01-17T08:58:33.467Z,0.57
2018-01-17T08:59:36.705Z,0.68
2018-01-17T09:00:40.884Z,0.58
2018-01-17T09:01:43.821Z,0.60
2018-01-17T09:02:47.173Z,0.55
2018-01-17T09:03:50.080Z,0.49
2018-01-17T09:04:53.782Z,0.53
2018-01-17T09:05:56.690Z,0.57
2018-01-17T09:06:59.617Z,0.68
2018-01-17T09:08:03.404Z,0.65
2018-01-17T09:09:06.706Z,0.61
2018-01-17T09:10:09.535Z,0.58
2018-01-17T09:11:12.447Z,0.63
2018-01-17T09:12:15.458Z,0.65
2018-01-17T09:13:18.403Z,0.61
2018-01-17T09:14:21.357Z,0.62
2018-01-17T09:15:24.702Z,0.64
2018-01-17T09:16:28.044Z,0.60
2018-01-17T09:17:31.130Z,0.64
2018-01-17T09:18:34.299Z,0.64
2018-01-17T09:19:37.235Z,0.57
2018-01-17T09:20:40.632Z,0.59
2018-01-17T09:21:43.920Z,0.65
2018-01-17T09:22:47.009Z,0.68
2018-01-17T09:23:49.987Z,0.67
2018-01-17T09:24:53.002Z,0.69
2018-01-17T09:25:55.996Z,0.78
2018-01-17T09:26:59.061Z,0.83
2018-01-17T09:28:02.477Z,0.71
2018-01-17T09:29:05.617Z,0.74
2018-01-17T09:30:08.631Z,0.65
2018-01-17T09:31:11.691Z,0.69
2018-01-17T09:32:14.607Z,0.73
2018-01-17T09:33:17.618Z,0.72
2018-01-17T09:34:20.901Z,0.74
2018-01-17T09:35:23.837Z,0.81
2018-01-17T09:36:28.053Z,0.85
2018-01-17T09:37:31.104Z,0.83
2018-01-17T09:38:34.059Z,0.80
2018-01-17T09:39:36.990Z,0.72
2018-01-17T09:40:40.362Z,0.68
2018-01-17T09:41:43.276Z,0.70
2018-01-17T09:42:46.221Z,0.73
2018-01-17T09:43:49.149Z,0.80
2018-01-17T09:44:52.053Z,0.80
2018-01-17T09:45:54.989Z,0.75
2018-01-17T09:46:58.365Z,0.78
2018-01-17T09:48:01.233Z,0.74
2018-01-17T09:49:04.851Z,0.76
2018-01-17T09:50:07.808Z,0.73
2018-01-17T09:51:11.478Z,0.74
2018-01-17T09:52:14.432Z,0.81
2018-01-17T09:53:17.743Z,0.81
2018-01-17T09:54:20.657Z,0.78
2018-01-17T09:55:23.593Z,0.79
2018-01-17T09:56:26.608Z,0.81
2018-01-17T09:57:29.590Z,0.82
2018-01-17T09:58:32.538Z,0.92
2018-01-17T09:59:35.969Z,0.87
2018-01-17T10:00:38.884Z,0.77
2018-01-17T10:01:41.864Z,0.78
2018-01-17T10:02:44.765Z,0.85
2018-01-17T10:03:47.752Z,0.75
2018-01-17T10:04:50.694Z,0.74
2018-01-17T10:05:54.090Z,0.59
2018-01-17T10:06:57.019Z,0.59
2018-01-17T10:08:00.155Z,0.56
2018-01-17T10:09:03.318Z,0.51
2018-01-17T10:10:06.329Z,0.50
2018-01-17T10:11:09.349Z,0.46
2018-01-17T10:12:12.679Z,0.51
2018-01-17T10:13:15.623Z,0.55
2018-01-17T10:14:18.621Z,0.57
2018-01-17T10:15:21.617Z,0.63
2018-01-17T10:16:24.630Z,0.62
2018-01-17T10:17:27.545Z,0.69
2018-01-17T10:18:30.900Z,0.67
2018-01-17T10:19:33.758Z,0.61
2018-01-17T10:20:36.642Z,0.46
2018-01-17T10:21:39.548Z,0.43
2018-01-17T10:22:42.511Z,0.47
2018-01-17T10:23:45.440Z,0.51
2018-01-17T10:24:48.794Z,0.53
2018-01-17T10:25:51.808Z,0.65
2018-01-17T10:26:54.757Z,0.66
2018-01-17T10:27:57.742Z,0.70
2018-01-17T10:29:00.711Z,0.72
2018-01-17T10:30:03.631Z,0.75
2018-01-17T10:31:07.121Z,0.73
2018-01-17T10:32:10.120Z,0.76
2018-01-17T10:33:13.070Z,0.80
2018-01-17T10:34:16.049Z,0.88
2018-01-17T10:35:18.979Z,0.86
2018-01-17T10:36:21.875Z,0.88
2018-01-17T10:37:25.374Z,0.91
2018-01-17T10:38:28.283Z,1.00
2018-01-17T10:39:31.190Z,0.96
2018-01-17T10:40:34.106Z,1.05
2018-01-17T10:41:36.985Z,1.01
2018-01-17T10:42:39.888Z,0.92
2018-01-17T10:43:43.185Z,1.00
2018-01-17T10:44:46.103Z,1.01
2018-01-17T10:45:48.989Z,1.08
2018-01-17T10:46:51.909Z,1.08
2018-01-17T10:47:54.828Z,1.10
2018-01-17T10:48:57.670Z,1.14
2018-01-17T10:50:00.917Z,1.06
2018-01-17T10:51:03.754Z,1.04
2018-01-17T10:52:06.954Z,1.00
2018-01-17T10:53:10.778Z,0.93
2018-01-17T10:54:13.797Z,0.87
2018-01-17T10:55:16.784Z,0.77
2018-01-17T10:56:20.222Z,0.82
2018-01-17T10:57:23.334Z,0.75
2018-01-17T10:58:26.258Z,0.82
2018-01-17T10:59:29.261Z,0.70
2018-01-17T11:00:36.195Z,0.67
2018-01-17T11:01:39.588Z,0.68
2018-01-17T11:02:42.701Z,0.74
2018-01-17T11:03:45.648Z,0.80
2018-01-17T11:04:48.700Z,0.70
2018-01-17T11:05:51.611Z,0.73
2018-01-17T11:06:54.687Z,0.75
2018-01-17T11:07:58.095Z,0.76
2018-01-17T11:09:01.157Z,0.73
2018-01-17T11:10:05.448Z,0.80
2018-01-17T11:11:08.443Z,0.81
2018-01-17T11:12:11.588Z,0.83
2018-01-17T11:13:14.640Z,0.84
2018-01-17T11:14:18.085Z,0.84
2018-01-17T11:15:21.069Z,0.85
2018-01-17T11:16:24.049Z,0.86
2018-01-17T11:17:27.161Z,0.89
2018-01-17T11:18:30.082Z,0.96
2018-01-17T11:19:33.089Z,0.95
2018-01-17T11:20:36.319Z,0.98
2018-01-17T11:21:39.329Z,0.91
2018-01-17T11:22:42.240Z,0.84
2018-01-17T11:23:45.393Z,0.89
2018-01-17T11:24:48.338Z,0.92
2018-01-17T11:25:51.323Z,0.86
2018-01-17T11:26:54.594Z,0.93
2018-01-17T11:27:57.565Z,0.92
2018-01-17T11:29:00.511Z,0.89
2018-01-17T11:30:03.424Z,0.97
2018-01-17T11:31:06.821Z,1.10
2018-01-17T11:32:09.776Z,1.15
2018-01-17T11:33:13.054Z,0.97
2018-01-17T11:34:15.966Z,0.86
2018-01-17T11:35:18.892Z,0.75
2018-01-17T11:36:22.815Z,0.72
2018-01-17T11:37:25.810Z,0.73
2018-01-17T11:38:28.738Z,0.78
2018-01-17T11:39:32.597Z,0.73
2018-01-17T11:40:35.811Z,0.66
2018-01-17T11:41:38.703Z,0.58
2018-01-17T11:42:41.539Z,0.66
2018-01-17T11:43:44.394Z,0.62
2018-01-17T11:44:47.790Z,0.59
2018-01-17T11:45:50.665Z,0.53
2018-01-17T11:46:53.626Z,0.59
2018-01-17T11:47:56.628Z,0.62
2018-01-17T11:48:59.570Z,0.66
2018-01-17T11:50:02.509Z,0.71
2018-01-17T11:51:05.987Z,0.71
2018-01-17T11:52:08.920Z,0.61
2018-01-17T11:53:11.962Z,0.62
2018-01-17T11:54:14.972Z,0.66
2018-01-17T11:55:18.176Z,0.69
2018-01-17T11:56:21.126Z,0.72
2018-01-17T11:57:24.578Z,0.70
2018-01-17T11:58:27.522Z,0.71
2018-01-17T11:59:30.492Z,0.70
2018-01-17T12:00:33.454Z,0.72
2018-01-17T12:01:36.449Z,0.79
2018-01-17T12:02:39.404Z,0.79
2018-01-17T12:03:42.799Z,0.82
2018-01-17T12:04:45.770Z,0.74
2018-01-17T12:05:48.698Z,0.87
2018-01-17T12:06:51.714Z,0.90
2018-01-17T12:07:54.685Z,0.92
2018-01-17T12:08:57.646Z,0.97
2018-01-17T12:10:00.870Z,1.04
2018-01-17T12:11:03.783Z,1.10
2018-01-17T12:12:06.741Z,0.99
2018-01-17T12:13:09.658Z,1.05
2018-01-17T12:14:12.513Z,0.99
2018-01-17T12:15:15.493Z,0.96
2018-01-17T12:16:18.679Z,1.04
2018-01-17T12:17:21.570Z,0.98
2018-01-17T12:18:24.542Z,0.92
2018-01-17T12:19:27.425Z,0.90
2018-01-17T12:20:30.946Z,0.95
2018-01-17T12:21:33.909Z,0.91
2018-01-17T12:22:37.319Z,0.88
2018-01-17T12:23:40.310Z,0.85
2018-01-17T12:24:43.239Z,0.89
2018-01-17T12:25:46.159Z,0.97
2018-01-17T12:26:49.168Z,0.93
2018-01-17T12:27:52.114Z,0.95
2018-01-17T12:28:55.057Z,1.03
2018-01-17T12:29:58.143Z,0.94
2018-01-17T12:31:01.054Z,0.95
2018-01-17T12:32:04.023Z,0.99
2018-01-17T12:33:06.986Z,0.97
2018-01-17T12:34:09.916Z,0.94
2018-01-17T12:35:12.818Z,0.97
2018-01-17T12:36:15.719Z,0.99
2018-01-17T12:37:18.649Z,1.06
2018-01-17T12:38:21.566Z,1.07
2018-01-17T12:39:24.929Z,1.07
2018-01-17T12:40:27.877Z,1.15
2018-01-17T12:41:30.798Z,1.13
2018-01-17T12:42:33.744Z,1.17
2018-01-17T12:43:36.667Z,1.15
2018-01-17T12:44:39.746Z,1.07
2018-01-17T12:45:42.712Z,1.12
2018-01-17T12:46:45.619Z,1.18
2018-01-17T12:47:48.542Z,1.15
2018-01-17T12:48:51.461Z,1.11
2018-01-17T12:49:54.369Z,1.20
2018-01-17T12:50:57.758Z,1.13
2018-01-17T12:52:00.682Z,1.10
2018-01-17T12:53:03.716Z,1.04
2018-01-17T12:54:06.714Z,1.05
2018-01-17T12:55:09.782Z,1.05
2018-01-17T12:56:12.711Z,1.10
2018-01-17T12:57:16.033Z,1.17
2018-01-17T12:58:18.983Z,1.09
2018-01-17T12:59:21.891Z,1.09
2018-01-17T13:00:24.881Z,1.06
2018-01-17T13:01:27.766Z,1.03
2018-01-17T13:02:30.650Z,1.00
2018-01-17T13:03:33.880Z,1.01
2018-01-17T13:04:36.794Z,1.02
2018-01-17T13:05:39.821Z,1.11
2018-01-17T13:06:42.795Z,1.17
2018-01-17T13:07:45.806Z,1.16
2018-01-17T13:08:48.714Z,1.13
2018-01-17T13:09:52.148Z,1.16
2018-01-17T13:10:55.053Z,1.17
2018-01-17T13:11:58.003Z,1.18
2018-01-17T13:13:00.993Z,1.15
2018-01-17T13:14:03.971Z,1.19
2018-01-17T13:15:06.915Z,1.23
2018-01-17T13:16:09.929Z,1.29
2018-01-17T13:17:13.146Z,1.17
2018-01-17T13:18:16.114Z,1.23
2018-01-17T13:19:19.281Z,1.18
2018-01-17T13:20:22.274Z,1.19
2018-01-17T13:21:25.215Z,1.20
2018-01-17T13:22:28.645Z,1.17
2018-01-17T13:23:31.570Z,1.23
2018-01-17T13:24:34.687Z,1.24
2018-01-17T13:25:37.657Z,1.28
2018-01-17T13:26:40.575Z,1.37
2018-01-17T13:27:43.407Z,1.38
2018-01-17T13:28:46.577Z,1.30
2018-01-17T13:29:49.547Z,1.37
2018-01-17T13:30:52.904Z,1.29
2018-01-17T13:31:55.964Z,1.34
2018-01-17T13:32:58.930Z,1.43
2018-01-17T13:34:01.913Z,1.36
2018-01-17T13:35:05.203Z,1.21
2018-01-17T13:36:08.173Z,1.34
2018-01-17T13:37:11.114Z,1.35
2018-01-17T13:38:14.049Z,1.42
2018-01-17T13:39:17.001Z,1.38
2018-01-17T13:40:19.921Z,1.30
2018-01-17T13:41:23.139Z,1.31
2018-01-17T13:42:26.126Z,1.42
2018-01-17T13:43:29.053Z,1.46
2018-01-17T13:44:32.023Z,1.39
2018-01-17T13:45:35.066Z,1.45
2018-01-17T13:46:38.093Z,1.49
2018-01-17T13:47:41.453Z,1.39
2018-01-17T13:48:44.414Z,1.43
2018-01-17T13:49:47.350Z,1.39
2018-01-17T13:50:50.307Z,1.53
2018-01-17T13:51:53.206Z,1.51
2018-01-17T13:52:56.155Z,1.49
2018-01-17T13:53:59.529Z,1.48
2018-01-17T13:55:02.464Z,1.47
2018-01-17T13:56:05.445Z,1.51
2018-01-17T13:57:08.384Z,1.54
2018-01-17T13:58:11.372Z,1.52
2018-01-17T13:59:14.563Z,1.59
2018-01-17T14:00:17.894Z,1.63
2018-01-17T14:01:20.794Z,1.51
2018-01-17T14:02:23.693Z,1.54
2018-01-17T14:03:26.583Z,1.58
2018-01-17T14:04:29.533Z,1.56
2018-01-17T14:05:32.630Z,1.58
2018-01-17T14:06:35.844Z,1.54
2018-01-17T14:07:38.736Z,1.55
2018-01-17T14:08:41.746Z,1.57
2018-01-17T14:09:44.688Z,1.61
2018-01-17T14:10:47.646Z,1.51
2018-01-17T14:11:50.650Z,1.46
2018-01-17T14:12:54.048Z,1.54
2018-01-17T14:13:57.131Z,1.54
2018-01-17T14:15:00.076Z,1.55
2018-01-17T14:16:03.036Z,1.51
2018-01-17T14:17:06.693Z,1.50
2018-01-17T14:18:09.673Z,1.60
2018-01-17T14:19:12.854Z,1.62
2018-01-17T14:20:15.884Z,1.57
2018-01-17T14:21:19.258Z,1.66
2018-01-17T14:22:22.234Z,1.73
2018-01-17T14:23:25.163Z,1.69
2018-01-17T14:24:28.055Z,1.71
2018-01-17T14:25:31.365Z,1.68
2018-01-17T14:26:38.372Z,1.74
2018-01-17T14:27:41.336Z,1.66
2018-01-17T14:28:44.374Z,1.71
2018-01-17T14:29:47.350Z,1.75
2018-01-17T14:30:50.301Z,1.70
2018-01-17T14:31:53.702Z,1.67
2018-01-17T14:32:56.711Z,1.71
2018-01-17T14:33:59.762Z,1.67
2018-01-17T14:35:02.792Z,1.64
2018-01-17T14:36:05.742Z,1.69
2018-01-17T14:37:08.766Z,1.67
2018-01-17T14:38:11.733Z,1.65
2018-01-17T14:39:14.726Z,1.61
2018-01-17T14:40:17.658Z,1.52
2018-01-17T14:41:20.671Z,1.47
2018-01-17T14:42:23.666Z,1.43
2018-01-17T14:43:27.225Z,1.39
2018-01-17T14:44:30.727Z,1.35
2018-01-17T14:45:33.711Z,1.23
2018-01-17T14:46:36.636Z,1.22
2018-01-17T14:47:39.542Z,1.11
2018-01-17T14:48:42.524Z,1.07
2018-01-17T14:49:45.742Z,1.09
2018-01-17T14:50:48.678Z,1.02
2018-01-17T14:51:51.619Z,0.98
2018-01-17T14:52:54.656Z,0.95
2018-01-17T14:53:57.595Z,0.93
2018-01-17T14:55:00.546Z,0.93
2018-01-17T14:56:03.947Z,0.91
2018-01-17T14:57:06.907Z,0.90
2018-01-17T14:58:09.958Z,0.87
2018-01-17T14:59:12.957Z,0.80
2018-01-17T15:00:16.624Z,0.79
2018-01-17T15:01:19.586Z,0.85
2018-01-17T15:02:22.992Z,0.93
2018-01-17T15:03:25.901Z,0.86
2018-01-17T15:04:28.887Z,0.78
2018-01-17T15:05:31.778Z,0.84
2018-01-17T15:06:34.797Z,0.76
2018-01-17T15:07:37.758Z,0.69
2018-01-17T15:08:40.972Z,0.66
2018-01-17T15:09:43.957Z,0.71
2018-01-17T15:10:46.977Z,0.75
2018-01-17T15:11:49.890Z,0.83
2018-01-17T15:12:52.916Z,0.92
2018-01-17T15:13:57.187Z,0.86
2018-01-17T15:15:00.562Z,0.88
2018-01-17T15:16:03.586Z,0.93
2018-01-17T15:17:06.697Z,0.88
2018-01-17T15:18:09.690Z,0.89
2018-01-17T15:19:12.767Z,0.95
2018-01-17T15:20:15.841Z,1.06
2018-01-17T15:21:19.530Z,1.10
2018-01-17T15:22:22.585Z,1.12
2018-01-17T15:23:25.737Z,1.08
2018-01-17T15:24:28.976Z,1.04
2018-01-17T15:25:32.026Z,0.99
2018-01-17T15:26:35.096Z,0.99
2018-01-17T15:27:38.124Z,1.01
2018-01-17T15:28:41.105Z,0.98
2018-01-17T15:29:44.160Z,0.96
2018-01-17T15:30:47.058Z,0.99
2018-01-17T15:31:49.988Z,0.99
2018-01-17T15:32:53.445Z,1.02
2018-01-17T15:33:56.385Z,1.01
2018-01-17T15:34:59.304Z,1.02
2018-01-17T15:36:02.301Z,0.99
2018-01-17T15:37:05.268Z,0.94
2018-01-17T15:38:08.289Z,0.95
2018-01-17T15:39:11.496Z,0.89
2018-01-17T15:40:14.433Z,0.81
2018-01-17T15:41:17.398Z,0.85
2018-01-17T15:42:20.306Z,0.81
2018-01-17T15:43:23.313Z,0.85
2018-01-17T15:44:27.137Z,0.79
2018-01-17T15:45:30.380Z,0.78
2018-01-17T15:46:33.310Z,0.80
2018-01-17T15:47:36.220Z,0.77
2018-01-17T15:48:39.149Z,0.82
2018-01-17T15:49:42.103Z,0.88
2018-01-17T15:50:45.063Z,0.92
2018-01-17T15:51:48.291Z,0.94
2018-01-17T15:52:51.209Z,0.97
2018-01-17T15:53:54.157Z,0.95
2018-01-17T15:54:57.176Z,1.03
2018-01-17T15:56:00.179Z,1.09
2018-01-17T15:57:03.138Z,1.09
2018-01-17T15:58:06.398Z,1.08
2018-01-17T15:59:09.310Z,1.11
2018-01-17T16:00:12.736Z,1.17
2018-01-17T16:01:15.677Z,1.25
2018-01-17T16:02:18.566Z,1.28
2018-01-17T16:03:21.891Z,1.29
2018-01-17T16:04:25.300Z,1.29
2018-01-17T16:05:28.203Z,1.33
2018-01-17T16:06:31.151Z,1.37
2018-01-17T16:07:34.072Z,1.33
2018-01-17T16:08:37.012Z,1.27
2018-01-17T16:09:39.998Z,1.29
2018-01-17T16:10:43.051Z,1.20
2018-01-17T16:11:45.972Z,1.21
2018-01-17T16:12:48.982Z,1.17
2018-01-17T16:13:51.977Z,1.06
2018-01-17T16:14:54.931Z,1.05
2018-01-17T16:15:58.287Z,1.02
2018-01-17T16:17:01.364Z,0.95
2018-01-17T16:18:04.265Z,1.01
2018-01-17T16:19:07.220Z,1.05
2018-01-17T16:20:10.119Z,1.09
2018-01-17T16:21:13.037Z,1.05
2018-01-17T16:22:16.276Z,1.06
2018-01-17T16:23:19.220Z,1.04
2018-01-17T16:24:22.133Z,0.98
2018-01-17T16:25:25.087Z,1.01
2018-01-17T16:26:28.071Z,1.06
2018-01-17T16:27:31.020Z,1.07
2018-01-17T16:28:34.192Z,1.09
2018-01-17T16:29:37.072Z,1.11
2018-01-17T16:30:40.005Z,1.06
2018-01-17T16:31:42.918Z,1.08
2018-01-17T16:32:45.906Z,1.13
2018-01-17T16:33:48.903Z,1.10
2018-01-17T16:34:52.145Z,1.14
2018-01-17T16:35:55.056Z,1.19
2018-01-17T16:36:57.976Z,1.23
2018-01-17T16:38:00.943Z,1.33
2018-01-17T16:39:04.020Z,1.35
2018-01-17T16:40:06.936Z,1.34
2018-01-17T16:41:10.314Z,1.34
2018-01-17T16:42:13.259Z,1.39
2018-01-17T16:43:16.222Z,1.43
2018-01-17T16:44:19.169Z,1.42
2018-01-17T16:45:22.099Z,1.43
2018-01-17T16:46:25.019Z,1.49
2018-01-17T16:47:28.239Z,1.48
2018-01-17T16:48:31.150Z,1.46
2018-01-17T16:49:34.231Z,1.50
2018-01-17T16:50:37.130Z,1.49
2018-01-17T16:51:40.195Z,1.48
2018-01-17T16:52:43.163Z,1.46
2018-01-17T16:53:46.433Z,1.38
2018-01-17T16:54:49.435Z,1.39
2018-01-17T16:55:52.710Z,1.32
2018-01-17T16:56:59.694Z,1.31
2018-01-17T16:58:02.722Z,1.35
2018-01-17T16:59:05.661Z,1.40
2018-01-17T17:00:08.872Z,1.40
2018-01-17T17:01:11.908Z,1.42
2018-01-17T17:02:14.858Z,1.45
2018-01-17T17:03:17.773Z,1.43
2018-01-17T17:04:20.821Z,1.61
2018-01-17T17:05:23.759Z,1.62
2018-01-17T17:06:27.152Z,1.60
2018-01-17T17:07:30.150Z,1.71
2018-01-17T17:08:33.101Z,1.82
2018-01-17T17:09:35.993Z,1.84
2018-01-17T17:10:38.921Z,1.71
2018-01-17T17:11:41.857Z,1.72
2018-01-17T17:12:44.824Z,1.71
2018-01-17T17:13:47.751Z,1.69
2018-01-17T17:14:50.599Z,1.84
2018-01-17T17:15:53.528Z,1.86
2018-01-17T17:16:56.603Z,1.87
2018-01-17T17:17:59.747Z,1.88
2018-01-17T17:19:02.726Z,1.86
2018-01-17T17:20:06.365Z,1.88
2018-01-17T17:21:09.290Z,1.86
2018-01-17T17:22:12.202Z,1.98
2018-01-17T17:23:15.151Z,1.93
2018-01-17T17:24:18.350Z,1.95
2018-01-17T17:25:21.282Z,1.90
2018-01-17T17:26:24.228Z,1.94
2018-01-17T17:27:27.206Z,1.83
2018-01-17T17:28:30.178Z,1.93
2018-01-17T17:29:33.118Z,1.90
2018-01-17T17:30:36.498Z,1.86
2018-01-17T17:31:39.399Z,1.84
2018-01-17T17:32:42.384Z,1.86
2018-01-17T17:33:46.868Z,1.82
2018-01-17T17:34:49.791Z,1.91
2018-01-17T17:35:52.699Z,1.97
2018-01-17T17:36:56.517Z,1.97
2018-01-17T17:37:59.490Z,1.91
2018-01-17T17:39:02.421Z,1.85
2018-01-17T17:40:05.381Z,1.89
2018-01-17T17:41:08.473Z,1.91
2018-01-17T17:42:11.437Z,1.95
2018-01-17T17:43:14.696Z,1.98
2018-01-17T17:44:17.646Z,1.91
2018-01-17T17:45:20.591Z,1.95
2018-01-17T17:46:23.536Z,1.94
2018-01-17T17:47:26.470Z,1.92
2018-01-17T17:48:29.406Z,1.90
2018-01-17T17:49:32.677Z,1.86
2018-01-17T17:50:35.515Z,1.85
2018-01-17T17:51:38.379Z,1.86
2018-01-17T17:52:41.205Z,1.92
2018-01-17T17:53:44.213Z,1.94
2018-01-17T17:54:47.066Z,1.85
2018-01-17T17:55:50.189Z,1.79
2018-01-17T17:56:53.169Z,1.77
2018-01-17T17:57:56.086Z,1.81
2018-01-17T17:58:59.033Z,1.79
2018-01-17T18:00:02.045Z,1.75
2018-01-17T18:01:05.291Z,1.77
2018-01-17T18:02:08.237Z,1.76
2018-01-17T18:03:11.179Z,1.78
2018-01-17T18:04:14.070Z,1.88
2018-01-17T18:05:17.010Z,1.84
2018-01-17T18:06:19.940Z,1.83
2018-01-17T18:07:23.204Z,1.79
2018-01-17T18:08:26.130Z,1.77
2018-01-17T18:09:29.070Z,1.78
2018-01-17T18:10:31.982Z,1.79
2018-01-17T18:11:34.830Z,1.67
2018-01-17T18:12:37.637Z,1.67
2018-01-17T18:13:40.542Z,1.70
2018-01-17T18:14:43.496Z,1.75
2018-01-17T18:15:46.429Z,1.73
2018-01-17T18:16:49.361Z,1.75
2018-01-17T18:17:52.291Z,1.70
2018-01-17T18:18:55.545Z,1.63
2018-01-17T18:19:58.570Z,1.67
2018-01-17T18:21:01.468Z,1.72
2018-01-17T18:22:04.412Z,1.73
2018-01-17T18:23:07.337Z,1.73
2018-01-17T18:24:10.390Z,1.78
2018-01-17T18:25:13.623Z,1.76
2018-01-17T18:26:16.564Z,1.78
2018-01-17T18:27:19.503Z,1.80
2018-01-17T18:28:22.444Z,1.80
2018-01-17T18:29:25.339Z,1.75
2018-01-17T18:30:28.338Z,1.69
2018-01-17T18:31:31.713Z,1.65
2018-01-17T18:32:34.631Z,1.64
2018-01-17T18:33:37.578Z,1.66
2018-01-17T18:34:40.497Z,1.68
2018-01-17T18:35:43.527Z,1.63
2018-01-17T18:36:46.599Z,1.61
2018-01-17T18:37:50.581Z,1.62
2018-01-17T18:38:53.513Z,1.61
2018-01-17T18:39:56.372Z,1.61
2018-01-17T18:40:59.391Z,1.57
2018-01-17T18:42:02.323Z,1.55
2018-01-17T18:43:05.270Z,1.50
2018-01-17T18:44:08.507Z,1.66
2018-01-17T18:45:11.510Z,1.58
2018-01-17T18:46:14.488Z,1.56
2018-01-17T18:47:18.023Z,1.51
2018-01-17T18:48:21.047Z,1.52
2018-01-17T18:49:24.012Z,1.58
2018-01-17T18:50:27.277Z,1.65
2018-01-17T18:51:30.246Z,1.59
2018-01-17T18:52:33.499Z,1.54
2018-01-17T18:53:36.551Z,1.54
2018-01-17T18:54:39.579Z,1.58
2018-01-17T18:55:42.807Z,1.55
2018-01-17T18:56:46.400Z,1.56
2018-01-17T18:57:49.397Z,1.54
2018-01-17T18:58:52.435Z,1.49
2018-01-17T18:59:55.515Z,1.53
2018-01-17T19:00:58.471Z,1.55
2018-01-17T19:02:01.628Z,1.53
2018-01-17T19:03:05.170Z,1.55
2018-01-17T19:04:08.254Z,1.57
2018-01-17T19:05:11.277Z,1.62
2018-01-17T19:06:14.737Z,1.66
2018-01-17T19:07:18.209Z,1.67
2018-01-17T19:08:21.181Z,1.58
2018-01-17T19:09:24.394Z,1.62
2018-01-17T19:10:27.575Z,1.58
2018-01-17T19:11:30.562Z,1.57
2018-01-17T19:12:33.672Z,1.63
2018-01-17T19:13:36.615Z,1.64
2018-01-17T19:14:39.593Z,1.68
2018-01-17T19:15:42.899Z,1.75
2018-01-17T19:16:45.934Z,1.81
2018-01-17T19:17:48.953Z,1.70
2018-01-17T19:18:51.940Z,1.72
2018-01-17T19:19:55.007Z,1.65
2018-01-17T19:20:57.953Z,1.66
2018-01-17T19:22:01.168Z,1.62
2018-01-17T19:23:04.153Z,1.62
2018-01-17T19:24:07.192Z,1.66
2018-01-17T19:25:10.117Z,1.70
2018-01-17T19:26:13.292Z,1.72
2018-01-17T19:27:16.329Z,1.68
2018-01-17T19:28:20.135Z,1.65
2018-01-17T19:29:23.059Z,1.69
2018-01-17T19:30:26.117Z,1.66
2018-01-17T19:31:29.002Z,1.69
2018-01-17T19:32:32.109Z,1.68
2018-01-17T19:33:35.906Z,1.66
2018-01-17T19:34:39.365Z,1.62
2018-01-17T19:35:42.293Z,1.54
2018-01-17T19:36:46.580Z,1.50
2018-01-17T19:37:50.326Z,1.60
2018-01-17T19:38:53.612Z,1.60
2018-01-17T19:39:56.918Z,1.54
2018-01-17T19:41:00.250Z,1.52
2018-01-17T19:42:03.367Z,1.44
2018-01-17T19:43:07.351Z,1.46
2018-01-17T19:44:10.413Z,1.47
2018-01-17T19:45:13.480Z,1.40
2018-01-17T19:46:16.434Z,1.35
2018-01-17T19:47:19.860Z,1.33
2018-01-17T19:48:22.949Z,1.31
2018-01-17T19:49:26.154Z,1.37
2018-01-17T19:50:29.593Z,1.46
2018-01-17T19:51:33.000Z,1.59
2018-01-17T19:52:36.217Z,1.51
2018-01-17T19:53:40.067Z,1.47
2018-01-17T19:54:43.439Z,1.42
2018-01-17T19:55:46.821Z,1.46
2018-01-17T19:56:50.000Z,1.51
2018-01-17T19:57:53.392Z,1.50
2018-01-17T19:58:56.852Z,1.41
2018-01-17T20:00:00.606Z,1.43
2018-01-17T20:01:03.685Z,1.37
2018-01-17T20:02:07.311Z,1.33
2018-01-17T20:03:10.953Z,1.35
2018-01-17T20:04:14.743Z,1.40
2018-01-17T20:05:17.967Z,1.36
2018-01-17T20:06:21.191Z,1.35
2018-01-17T20:07:24.105Z,1.33
2018-01-17T20:08:27.067Z,1.40
2018-01-17T20:09:29.982Z,1.48
2018-01-17T20:10:33.428Z,1.37
2018-01-17T20:11:36.412Z,1.32
2018-01-17T20:12:39.623Z,1.36
2018-01-17T20:13:43.361Z,1.35
2018-01-17T20:14:46.355Z,1.33
2018-01-17T20:15:49.390Z,1.28
2018-01-17T20:16:52.402Z,1.26
2018-01-17T20:17:55.345Z,1.36
2018-01-17T20:18:58.673Z,1.33
2018-01-17T20:20:01.702Z,1.39
2018-01-17T20:21:04.732Z,1.37
2018-01-17T20:22:07.795Z,1.35
2018-01-17T20:23:11.045Z,1.36
2018-01-17T20:24:14.039Z,1.40
2018-01-17T20:25:17.695Z,1.44
2018-01-17T20:26:21.054Z,1.45
2018-01-17T20:27:24.096Z,1.42
2018-01-17T20:28:27.035Z,1.41
2018-01-17T20:29:30.211Z,1.48
2018-01-17T20:30:33.245Z,1.49
2018-01-17T20:31:36.842Z,1.45
2018-01-17T20:32:40.842Z,1.53
2018-01-17T20:33:44.440Z,1.48
2018-01-17T20:34:47.479Z,1.48
2018-01-17T20:35:50.410Z,1.55
2018-01-17T20:36:53.309Z,1.54
2018-01-17T20:37:56.543Z,1.52
2018-01-17T20:38:59.941Z,1.49
2018-01-17T20:40:03.111Z,1.49
2018-01-17T20:41:06.973Z,1.53
2018-01-17T20:42:09.908Z,1.56
2018-01-17T20:43:12.922Z,1.55
2018-01-17T20:44:16.538Z,1.46
2018-01-17T20:45:19.578Z,1.42
2018-01-17T20:46:22.701Z,1.50
2018-01-17T20:47:25.772Z,1.54
2018-01-17T20:48:29.200Z,1.53
2018-01-17T20:49:32.251Z,1.53
2018-01-17T20:50:35.631Z,1.52
2018-01-17T20:51:38.630Z,1.58
2018-01-17T20:52:41.913Z,1.57
2018-01-17T20:53:45.079Z,1.52
2018-01-17T20:54:48.143Z,1.51
2018-01-17T20:55:51.079Z,1.48
2018-01-17T20:56:54.950Z,1.51